Aviation Digital Data Service (ADDS)

Output produced by METARs form (2310 UTC 15 August 2018)
found at http://www.aviationweather.gov/adds/metars/
 
TISX 151720Z 1518/1618 11014G20KT P6SM VCSH FEW024 SCT035 
     FM152200 08008KT P6SM FEW040 
     FM160800 07007KT P6SM VCSH SCT025 BKN050 
     FM161450 10012KT P6SM -RA SCT028 BKN060 BKN100
       
TIST 151720Z 1518/1618 12012G19KT P6SM VCSH FEW024 SCT040 
     FM152200 09008KT P6SM FEW040 
     FM160800 08007KT P6SM VCSH SCT025 BKN050 
     FM161450 11012KT P6SM -RA SCT028 BKN060 BKN100